🇳🇱 VeloStatistics

👤 Oleksandr Sheydyk

NationaliteitUKR
Geboortedatum1980-09-13
Overlijdensdatum -
Lengte / Gewicht?? cm / ?? kg
Profzeges0
Profzeges 20260
Wedstrijddagen232

🚴 Ploegenhistorie

Geen ploegen gevonden.

📊 Prestatie Matrix

Jaar
GdI
TdF
VaE
MSR
RvV
PR
LBL
LOM
WK
PN
TA
VPV
VaC
TdR
CdD
TdS
GW
AGR
FW
PT
2011 - - - - - - - - 145 - - - - - - - - - - -
2010 - - - - - - - - 67 - - - - - - - - - - -

🏆 Resultaten (110)

Datum Pos Wedstrijd UCI Ploeg
2016-06-26 5 2016 | N.K. Oekraïne, UKR (26.6) NC -
2016-05-31 5 2016 | Tour of Ukraine, UKR | Rit 1 (31.5) 2.2 -
2014-08-02 2 2014 | Tour de Guadeloupe, FRA | Rit 1 (2.8) 2.2 -
2014-07-20 46 2014 | Sibiu Cycling Tour, ROU (20.7) 2.2 -
2014-07-20 15 2014 | Sibiu Cycling Tour, ROU | Rit 4 (20.7) 2.2 -
2014-06-01 16 2014 | Race Horizon Park III, UKR (1.6) 1.2 -
2014-04-20 2 2014 | G.P. Adygeya, RUS (20.4) 2.2 -
2014-04-19 2 2014 | G.P. Adygeya, RUS | Rit 4 (19.4) 2.2 -
2014-04-18 9 2014 | G.P. Adygeya, RUS | Rit 3 (18.4) 2.2 -
2014-04-16 8 2014 | G.P. Adygeya, RUS | Rit 1 (16.4) 2.2 -
2014-04-06 4 2014 | G.P. of Sochi, RUS (6.4) 2.2 -
2014-04-06 7 2014 | G.P. of Sochi, RUS | Rit 6 (6.4) 2.2 -
2014-04-04 2 2014 | G.P. of Sochi, RUS | Rit 4 (4.4) 2.2 -
2014-04-02 6 2014 | G.P. of Sochi, RUS | Rit 2 (2.4) 2.2 -
2014-04-01 7 2014 | G.P. of Sochi, RUS | Rit 1 (1.4) 2.2 -
2013-09-30 104 2013 | Tour of China II, CHN (30.9) 2.1 -
2013-09-20 20 2013 | Tour of China, CHN (20.9) 2.1 -
2013-09-14 16 2013 | Tour of China, CHN | Rit 1 (14.9) 2.1 -
2013-09-05 7 2013 | Tour de Bulgarie, BUL (5.9) 2.2 -
2013-09-05 9 2013 | Tour de Bulgarie, BUL | Rit 6 (5.9) 2.2 -
2013-09-03 4 2013 | Tour de Bulgarie, BUL | Rit 4 (3.9) 2.2 -
2013-07-14 16 2013 | Sibiu Cycling Tour, ROU (14.7) 2.1 -
2013-07-13 17 2013 | Sibiu Cycling Tour, ROU | Rit 2 (13.7) 2.1 -
2013-07-12 16 2013 | Sibiu Cycling Tour, ROU | Rit 1 (12.7) 2.1 -
2013-06-29 48 2013 | Course de Solidarnosc et des Champions Olympiques, POL (29.6) 2.1 -
2013-06-09 73 2013 | Jurmala G.P., LAT (9.6) 1.1 -
2013-06-08 79 2013 | Riga G.P., LAT (8.6) 1.1 -
2013-05-26 13 2013 | Race Horizon Park II, UKR (26.5) 1.2 -
2013-05-24 2 2013 | Race Horizon Park I, UKR (24.5) 1.2 -
2013-05-09 9 2013 | Five Rings of Moscow, RUS (9.5) 2.2 -
2013-05-08 8 2013 | Five Rings of Moscow, RUS | Rit 3 (8.5) 2.2 -
2013-05-02 13 2013 | Memorial Oleg Dyachenko, RUS (2.5) 1.2 -
2013-04-14 4 2013 | G.P. Donetsk, UKR (14.4) 1.2 -
2012-08-25 51 2012 | Giro del Veneto, ITA (25.8) 1.1 -
2012-07-14 24 2012 | G.P. Nobili Rubinetterie - Stresa, ITA (14.7) 1.1 -
2012-06-24 7 2012 | N.K. Oekraïne, UKR (24.6) NC -
2012-04-29 81 2012 | International Presidency Turkey Tour, TUR (29.4) 2.HC -
2012-03-24 110 2012 | Settimana Internazionale Coppi - Bartali, ITA (24.3) 2.1 -
2011-09-25 145 2011 | Wereldkampioenschap (25.9) WC -
2011-07-10 3 2011 | Sibiu Cycling Tour, ROU (10.7) 2.2 -
2011-07-10 4 2011 | Sibiu Cycling Tour, ROU | Rit 5 (10.7) 2.2 -
2011-07-08 3 2011 | Sibiu Cycling Tour, ROU | Rit 3 (8.7) 2.2 -
2011-07-02 2 2011 | Course de Solidarnosc et des Champions Olympiques, POL (2.7) 2.1 -
2011-07-01 2 2011 | Course de Solidarnosc et des Champions Olympiques, POL | Rit 3 (1.7) 2.1 -
2011-06-26 4 2011 | N.K. Oekraïne, UKR (26.6) NC -
2011-06-12 15 2011 | Tour de l'Oise, FRA (12.6) 2.2 -
2011-05-29 3 2011 | FBD Insurance RAS, IRL (29.5) 2.2 -
2011-05-24 2 2011 | FBD Insurance RAS, IRL | Rit 3 (24.5) 2.2 -
2011-05-23 10 2011 | FBD Insurance RAS, IRL | Rit 2 (23.5) 2.2 -
2011-04-17 4 2011 | G.P. Donetsk, UKR (17.4) 1.2 -